Time;durP1;ratioP1;P1;durP2;ratioP2;P2;SDS_P1;SDS_P2;PMS_P1;PMS_P2;Temp;Humidity;BMP_temperature;BMP_pressure;BME280_temperature;BME280_humidity;BME280_pressure;Samples;Min_cycle;Max_cycle;Signal;HPM_P1;HPM_P2
2021/09/13 00:00:30;;;;;;;8.30;6.63;;;14.10;99.90;;;;;;4995543;28;20214;-83
2021/09/13 00:02:55;;;;;;;8.63;7.17;;;14.10;99.90;;;;;;4994693;28;20179;-83
2021/09/13 00:05:22;;;;;;;7.67;6.70;;;14.10;99.90;;;;;;4996262;28;20249;-83
2021/09/13 00:07:48;;;;;;;8.53;7.70;;;14.00;99.90;;;;;;5000563;28;20263;-83
2021/09/13 00:10:14;;;;;;;9.73;7.23;;;13.90;99.90;;;;;;5007621;28;20199;-84
2021/09/13 00:12:40;;;;;;;7.40;6.60;;;14.00;99.90;;;;;;4999291;28;20191;-84
2021/09/13 00:15:08;;;;;;;8.70;7.17;;;13.90;99.90;;;;;;5001034;28;20565;-84
2021/09/13 00:17:34;;;;;;;7.23;6.53;;;13.90;99.90;;;;;;4999829;28;20183;-84
2021/09/13 00:20:00;;;;;;;8.90;7.47;;;13.90;99.90;;;;;;4999879;28;20270;-84
2021/09/13 00:22:25;;;;;;;8.67;7.23;;;13.80;99.90;;;;;;5000514;28;20179;-84
2021/09/13 00:24:51;;;;;;;8.23;7.43;;;13.90;99.90;;;;;;5000577;28;20179;-84
2021/09/13 00:27:17;;;;;;;8.37;7.50;;;13.90;99.90;;;;;;5000200;28;20183;-84
2021/09/13 00:29:42;;;;;;;9.70;6.60;;;13.90;99.90;;;;;;5000052;28;20187;-84
2021/09/13 00:32:08;;;;;;;8.13;7.30;;;13.80;99.90;;;;;;5000761;28;20214;-84
2021/09/13 00:34:35;;;;;;;7.83;6.73;;;13.80;99.90;;;;;;5001405;28;20191;-84
2021/09/13 00:37:03;;;;;;;10.87;6.80;;;13.80;99.90;;;;;;5001494;28;20198;-84
2021/09/13 00:39:28;;;;;;;7.47;6.23;;;13.80;99.90;;;;;;5002165;28;20235;-84
2021/09/13 00:41:54;;;;;;;10.00;7.30;;;13.70;99.90;;;;;;5003106;28;20203;-84
2021/09/13 00:44:20;;;;;;;6.87;6.17;;;13.60;99.90;;;;;;4999653;28;20287;-84
2021/09/13 00:46:46;;;;;;;8.87;7.10;;;13.60;99.90;;;;;;4999859;28;20203;-84
2021/09/13 00:49:11;;;;;;;7.90;6.47;;;13.60;99.90;;;;;;5001774;28;20525;-84
2021/09/13 00:51:37;;;;;;;7.37;6.67;;;13.50;99.90;;;;;;4999564;28;20203;-84
2021/09/13 00:54:03;;;;;;;7.97;6.73;;;13.50;99.90;;;;;;5001451;28;20172;-84
2021/09/13 00:56:29;;;;;;;8.33;6.80;;;13.50;99.90;;;;;;5000418;28;20559;-84
2021/09/13 00:58:54;;;;;;;7.77;6.73;;;13.50;99.90;;;;;;5003652;28;20183;-84
2021/09/13 01:01:20;;;;;;;9.53;6.57;;;13.50;99.90;;;;;;5016174;28;20203;-84
2021/09/13 01:03:46;;;;;;;9.50;6.83;;;13.50;99.90;;;;;;5013194;28;20199;-84
2021/09/13 01:06:12;;;;;;;7.03;6.33;;;13.40;99.90;;;;;;5000392;28;20233;-84
2021/09/13 01:08:37;;;;;;;9.17;6.83;;;13.40;99.90;;;;;;4998889;28;20191;-84
2021/09/13 01:11:03;;;;;;;7.87;6.07;;;13.40;99.90;;;;;;4999715;28;20203;-84
2021/09/13 01:13:29;;;;;;;9.23;6.17;;;13.40;99.90;;;;;;5000853;28;20176;-84
2021/09/13 01:15:55;;;;;;;7.50;6.53;;;13.30;99.90;;;;;;4999947;28;20696;-84
2021/09/13 01:18:21;;;;;;;7.00;6.30;;;;;;;;;;5001978;28;20198;-84
2021/09/13 01:20:47;;;;;;;10.53;6.83;;;13.30;99.90;;;;;;5003610;28;20195;-84
2021/09/13 01:23:34;;;;;;;6.60;5.90;;;13.30;99.90;;;;;;5002392;28;20521;-84
2021/09/13 01:26:00;;;;;;;6.73;5.90;;;13.30;99.90;;;;;;5004605;28;20167;-84
2021/09/13 01:28:26;;;;;;;7.50;5.23;;;13.30;99.90;;;;;;5003873;28;20183;-84
2021/09/13 01:30:53;;;;;;;6.37;5.17;;;13.20;99.90;;;;;;5003910;28;20224;-84
2021/09/13 01:33:20;;;;;;;6.87;5.57;;;13.20;99.90;;;;;;5003463;28;20174;-84
2021/09/13 01:35:46;;;;;;;6.33;5.73;;;13.20;99.90;;;;;;5002497;28;20304;-84
2021/09/13 01:38:13;;;;;;;5.93;5.33;;;13.10;99.90;;;;;;5002712;28;20669;-84
2021/09/13 01:40:39;;;;;;;7.70;5.70;;;13.00;99.90;;;;;;5000685;28;20200;-83
2021/09/13 01:43:05;;;;;;;6.27;5.30;;;;;;;;;;4997748;28;20183;-84
2021/09/13 01:45:31;;;;;;;6.17;5.50;;;13.00;99.90;;;;;;5002219;28;20219;-84
2021/09/13 01:47:57;;;;;;;6.70;5.57;;;13.00;99.90;;;;;;5002529;28;20196;-84
2021/09/13 01:50:23;;;;;;;9.10;5.70;;;12.90;99.90;;;;;;5003744;28;20200;-84
2021/09/13 01:52:49;;;;;;;6.67;5.50;;;;;;;;;;5001487;28;20179;-86
2021/09/13 01:55:15;;;;;;;6.10;5.50;;;12.90;99.90;;;;;;5002780;28;20668;-84
2021/09/13 01:57:41;;;;;;;7.67;5.53;;;;;;;;;;5003450;28;20182;-84
2021/09/13 02:00:08;;;;;;;8.77;5.50;;;12.80;99.90;;;;;;5001758;28;20632;-83
2021/09/13 02:02:34;;;;;;;6.83;6.13;;;12.80;99.90;;;;;;5002322;28;20733;-84
2021/09/13 02:04:59;;;;;;;7.40;5.70;;;12.80;99.90;;;;;;5002936;28;20211;-84
2021/09/13 02:07:25;;;;;;;6.73;6.03;;;;;;;;;;5003195;28;20186;-84
2021/09/13 02:09:52;;;;;;;7.07;6.03;;;;;;;;;;5002305;28;20187;-83
2021/09/13 02:12:22;;;;;;;7.07;5.97;;;12.80;99.90;;;;;;5003883;28;20290;-84
2021/09/13 02:14:48;;;;;;;7.10;5.23;;;12.80;99.90;;;;;;5002368;28;20211;-84
2021/09/13 02:17:14;;;;;;;6.63;5.67;;;12.70;99.90;;;;;;5001068;28;20249;-84
2021/09/13 02:19:40;;;;;;;6.80;6.10;;;;;;;;;;4999173;28;20222;-83
2021/09/13 02:22:05;;;;;;;5.93;5.33;;;12.70;99.90;;;;;;5000430;28;20187;-84
2021/09/13 02:24:31;;;;;;;5.77;5.20;;;12.70;99.90;;;;;;4998748;28;20186;-84
2021/09/13 02:26:58;;;;;;;6.53;5.60;;;;;;;;;;4998415;28;20531;-83
2021/09/13 02:29:24;;;;;;;5.90;5.40;;;12.70;99.90;;;;;;5000184;28;20649;-84
2021/09/13 02:31:49;;;;;;;5.93;5.33;;;12.70;99.90;;;;;;5000985;28;20198;-83
2021/09/13 02:34:15;;;;;;;5.50;4.90;;;12.60;99.90;;;;;;5015719;28;20179;-84
2021/09/13 02:36:41;;;;;;;8.40;5.17;;;;;;;;;;5002336;28;20203;-84
2021/09/13 02:39:09;;;;;;;6.07;5.13;;;12.40;99.90;;;;;;5004258;28;20175;-84
2021/09/13 02:41:35;;;;;;;6.00;5.37;;;12.40;99.90;;;;;;5005135;28;20198;-84
2021/09/13 02:44:01;;;;;;;5.50;4.93;;;12.40;99.90;;;;;;5005085;28;20218;-84
2021/09/13 02:46:27;;;;;;;6.63;5.50;;;12.40;99.90;;;;;;5005374;28;20262;-84
2021/09/13 02:48:53;;;;;;;6.47;5.43;;;;;;;;;;5007321;28;20186;-84
2021/09/13 02:51:19;;;;;;;6.67;5.67;;;12.40;99.90;;;;;;5001285;28;20218;-84
2021/09/13 02:53:45;;;;;;;7.00;5.70;;;;;;;;;;5001932;28;20172;-84
2021/09/13 02:56:11;;;;;;;7.47;5.87;;;12.40;99.90;;;;;;5002543;28;20207;-84
2021/09/13 02:58:36;;;;;;;5.83;5.23;;;12.40;99.90;;;;;;5002886;28;20199;-84
2021/09/13 03:01:02;;;;;;;5.83;5.23;;;12.40;99.90;;;;;;5001869;28;20203;-84
2021/09/13 03:03:28;;;;;;;6.13;5.53;;;12.40;99.90;;;;;;5001928;28;20279;-84
2021/09/13 03:05:53;;;;;;;6.20;5.50;;;12.40;99.90;;;;;;5000800;28;20184;-84
2021/09/13 03:08:19;;;;;;;6.57;5.80;;;12.40;99.90;;;;;;5000999;28;20222;-84
2021/09/13 03:10:45;;;;;;;6.60;5.97;;;12.40;99.90;;;;;;5001915;28;20250;-84
2021/09/13 03:13:11;;;;;;;6.47;5.53;;;12.40;99.90;;;;;;5000415;28;20274;-84
2021/09/13 03:15:37;;;;;;;5.93;5.33;;;12.40;99.90;;;;;;5000888;28;20229;-84
2021/09/13 03:18:03;;;;;;;6.03;5.33;;;12.30;99.90;;;;;;5000732;28;20697;-84
2021/09/13 03:20:29;;;;;;;5.77;5.17;;;12.30;99.90;;;;;;5000941;28;20203;-84
2021/09/13 03:22:55;;;;;;;5.50;5.00;;;12.20;99.90;;;;;;5000634;28;20214;-84
2021/09/13 03:25:23;;;;;;;5.77;5.17;;;12.10;99.90;;;;;;5001619;28;20646;-84
2021/09/13 03:27:48;;;;;;;5.47;4.87;;;12.10;99.90;;;;;;5001859;28;20186;-84
2021/09/13 03:30:14;;;;;;;6.53;5.93;;;12.10;99.90;;;;;;5000937;28;20207;-84
2021/09/13 03:32:40;;;;;;;6.77;5.67;;;12.00;99.90;;;;;;5000677;28;20193;-84
2021/09/13 03:35:07;;;;;;;6.27;5.67;;;12.00;99.90;;;;;;5000430;28;20214;-84
2021/09/13 03:37:32;;;;;;;5.90;5.30;;;12.00;99.90;;;;;;5001636;28;20646;-84
2021/09/13 03:39:58;;;;;;;6.40;5.80;;;11.90;99.90;;;;;;5001385;28;20186;-84
2021/09/13 03:42:24;;;;;;;8.27;5.47;;;11.90;99.90;;;;;;5000426;28;20638;-84
2021/09/13 03:44:49;;;;;;;5.80;5.30;;;11.90;99.90;;;;;;5001418;28;20179;-84
2021/09/13 03:47:15;;;;;;;6.87;6.17;;;11.90;99.90;;;;;;5000882;28;20630;-84
2021/09/13 03:49:41;;;;;;;6.60;5.93;;;11.90;99.90;;;;;;5002500;28;20214;-84
2021/09/13 03:52:09;;;;;;;6.17;5.30;;;11.90;99.90;;;;;;5000939;28;20257;-85
2021/09/13 03:54:36;;;;;;;7.40;5.97;;;11.90;99.90;;;;;;5002847;28;20176;-84
2021/09/13 03:57:02;;;;;;;7.03;6.30;;;11.90;99.90;;;;;;5002241;28;20198;-84
2021/09/13 03:59:28;;;;;;;8.60;6.30;;;11.80;99.90;;;;;;5001713;28;20227;-85
2021/09/13 04:01:54;;;;;;;7.83;6.87;;;11.90;99.90;;;;;;5007070;28;20261;-83
2021/09/13 04:04:23;;;;;;;6.77;6.03;;;11.90;99.90;;;;;;5016273;28;20206;-83
2021/09/13 04:06:56;;;;;;;7.40;6.50;;;11.80;99.90;;;;;;5011519;28;20182;-84
2021/09/13 04:11:55;;;;;;;7.10;6.33;;;11.90;99.90;;;;;;5001167;28;20188;-84
2021/09/13 04:14:22;;;;;;;9.50;6.23;;;11.90;99.90;;;;;;5000887;28;20160;-84
2021/09/13 04:16:48;;;;;;;8.47;6.60;;;11.90;99.90;;;;;;4999934;28;20220;-83
2021/09/13 04:19:13;;;;;;;7.83;6.57;;;11.80;99.90;;;;;;5000855;28;20180;-84
2021/09/13 04:21:40;;;;;;;8.27;7.47;;;11.80;99.90;;;;;;5002147;28;20188;-84
2021/09/13 04:24:06;;;;;;;7.17;6.37;;;11.80;99.90;;;;;;4999219;28;20202;-84
2021/09/13 04:26:32;;;;;;;7.67;6.87;;;11.80;99.90;;;;;;4999339;28;20641;-83
2021/09/13 04:28:57;;;;;;;8.37;6.73;;;11.80;99.90;;;;;;5000078;28;20262;-84
2021/09/13 04:31:23;;;;;;;7.53;6.50;;;11.80;99.90;;;;;;4999491;28;20222;-84
2021/09/13 04:33:50;;;;;;;9.00;7.43;;;11.80;99.90;;;;;;4999903;28;20182;-83
2021/09/13 04:36:17;;;;;;;7.67;6.83;;;11.80;99.90;;;;;;4998344;28;20258;-83
2021/09/13 04:38:43;;;;;;;9.37;7.03;;;11.70;99.90;;;;;;5000020;28;20191;-83
2021/09/13 04:41:09;;;;;;;7.33;6.53;;;11.70;99.90;;;;;;4998392;28;20219;-84
2021/09/13 04:43:35;;;;;;;9.10;6.80;;;11.70;99.90;;;;;;4999286;28;20703;-84
2021/09/13 04:46:00;;;;;;;8.60;6.40;;;11.70;99.90;;;;;;4998184;28;20196;-83
2021/09/13 04:48:26;;;;;;;7.23;6.50;;;11.70;99.90;;;;;;4999070;28;20258;-84
2021/09/13 04:50:55;;;;;;;7.23;6.50;;;11.60;99.90;;;;;;4999028;28;20229;-84
2021/09/13 04:53:21;;;;;;;8.10;6.87;;;11.60;99.90;;;;;;5001616;28;20502;-84
2021/09/13 04:55:47;;;;;;;10.27;6.97;;;11.60;99.90;;;;;;5001790;28;20203;-84
2021/09/13 04:58:13;;;;;;;7.00;6.27;;;11.60;99.90;;;;;;4999537;28;20761;-83
2021/09/13 05:00:39;;;;;;;7.43;6.33;;;11.50;99.90;;;;;;4998276;28;20610;-83
2021/09/13 05:03:05;;;;;;;8.67;6.70;;;11.50;99.90;;;;;;4999306;28;20181;-83
2021/09/13 05:05:31;;;;;;;7.07;6.30;;;11.50;99.90;;;;;;5002967;28;20689;-83
2021/09/13 05:07:57;;;;;;;7.20;6.20;;;11.40;99.90;;;;;;5005726;28;20192;-84
2021/09/13 05:10:23;;;;;;;7.30;6.20;;;11.40;99.90;;;;;;5006831;28;20242;-84
2021/09/13 05:12:48;;;;;;;8.87;6.57;;;11.40;99.90;;;;;;5004921;28;20212;-84
2021/09/13 05:15:14;;;;;;;7.33;6.20;;;11.40;99.90;;;;;;5007057;28;20206;-84
2021/09/13 05:17:40;;;;;;;8.77;6.57;;;11.40;99.90;;;;;;5005695;28;20196;-84
2021/09/13 05:20:06;;;;;;;7.77;6.33;;;11.40;99.90;;;;;;5004522;28;20178;-84
2021/09/13 05:22:32;;;;;;;7.40;6.33;;;11.40;99.90;;;;;;5003508;28;20180;-84
2021/09/13 05:24:58;;;;;;;7.23;6.37;;;11.40;99.90;;;;;;5005249;28;20187;-85
2021/09/13 05:27:24;;;;;;;7.00;6.30;;;11.50;99.90;;;;;;5006941;28;20241;-85
2021/09/13 05:29:49;;;;;;;7.97;6.57;;;11.50;99.90;;;;;;5004646;28;20201;-84
2021/09/13 05:32:15;;;;;;;7.00;6.30;;;11.60;99.90;;;;;;5005785;28;20205;-83
2021/09/13 05:34:41;;;;;;;7.03;6.33;;;11.70;99.90;;;;;;5010744;28;20203;-84
2021/09/13 05:37:07;;;;;;;6.93;6.23;;;11.70;99.90;;;;;;5017201;28;20159;-84
2021/09/13 05:39:33;;;;;;;7.40;6.17;;;11.80;99.90;;;;;;5011823;28;20180;-83
2021/09/13 05:41:59;;;;;;;6.80;6.10;;;11.80;99.90;;;;;;5002928;28;20191;-84
2021/09/13 05:44:24;;;;;;;9.47;5.63;;;11.90;99.90;;;;;;5004722;28;20180;-85
2021/09/13 05:46:51;;;;;;;16.37;7.17;;;11.90;99.90;;;;;;5004913;28;20179;-85
2021/09/13 05:49:17;;;;;;;11.43;6.33;;;12.00;99.90;;;;;;5005035;28;20179;-85
2021/09/13 05:51:45;;;;;;;8.10;6.53;;;12.10;99.90;;;;;;5004691;28;20233;-85
2021/09/13 05:54:12;;;;;;;8.87;6.60;;;12.20;99.90;;;;;;5004090;28;20187;-85
2021/09/13 05:56:39;;;;;;;7.87;5.73;;;12.20;99.90;;;;;;5006113;28;20536;-85
2021/09/13 05:59:04;;;;;;;8.10;5.93;;;12.30;99.90;;;;;;5004410;28;20188;-85
2021/09/13 06:01:30;;;;;;;8.87;6.07;;;12.30;99.90;;;;;;5003814;28;20330;-84
2021/09/13 06:03:55;;;;;;;8.50;6.00;;;12.40;99.90;;;;;;5003538;28;20310;-85
2021/09/13 06:06:21;;;;;;;7.50;5.80;;;12.50;99.90;;;;;;5005901;28;20171;-85
2021/09/13 06:08:47;;;;;;;8.23;6.60;;;12.60;99.90;;;;;;5005169;28;20180;-85
2021/09/13 06:11:12;;;;;;;8.07;6.60;;;12.60;99.90;;;;;;5005540;28;20270;-85
2021/09/13 06:13:40;;;;;;;6.23;5.63;;;12.60;99.90;;;;;;5005647;28;20185;-85
2021/09/13 06:16:08;;;;;;;8.13;6.10;;;12.60;99.90;;;;;;5004783;28;20231;-85
2021/09/13 06:18:35;;;;;;;6.00;5.40;;;12.70;99.90;;;;;;5004674;28;20179;-85
2021/09/13 06:21:01;;;;;;;6.33;5.73;;;12.70;99.90;;;;;;5004573;28;20219;-85
2021/09/13 06:23:26;;;;;;;7.20;6.30;;;12.80;99.90;;;;;;5004871;28;20182;-84
2021/09/13 06:25:52;;;;;;;6.20;5.60;;;12.80;99.90;;;;;;5005566;28;20186;-84
2021/09/13 06:28:18;;;;;;;6.10;5.50;;;12.80;99.90;;;;;;5003690;28;20652;-85
2021/09/13 06:30:43;;;;;;;7.03;5.97;;;12.70;99.90;;;;;;5005003;28;20253;-85
2021/09/13 06:33:09;;;;;;;6.97;5.40;;;12.70;99.90;;;;;;5003065;28;20697;-85
2021/09/13 06:35:35;;;;;;;7.63;5.87;;;12.70;99.90;;;;;;5005670;28;20213;-84
2021/09/13 06:38:01;;;;;;;6.20;5.60;;;12.70;99.90;;;;;;5005200;28;20190;-84
2021/09/13 06:40:26;;;;;;;6.90;5.60;;;12.80;99.90;;;;;;5005543;28;20207;-85
2021/09/13 06:42:52;;;;;;;7.30;6.17;;;12.80;99.90;;;;;;5003268;28;20176;-85
2021/09/13 06:45:20;;;;;;;7.10;5.47;;;12.80;99.90;;;;;;5006128;28;20195;-85
2021/09/13 06:47:46;;;;;;;7.17;5.67;;;12.90;99.90;;;;;;5004131;28;20207;-84
2021/09/13 06:50:25;;;;;;;6.00;5.10;;;13.00;99.90;;;;;;5005502;28;20210;-85
2021/09/13 06:52:54;;;;;;;6.43;5.80;;;13.10;99.90;;;;;;5005874;28;20617;-85
2021/09/13 06:55:20;;;;;;;5.53;5.03;;;13.20;99.90;;;;;;5005843;28;20653;-85
2021/09/13 06:57:46;;;;;;;7.03;5.67;;;13.40;99.90;;;;;;5004730;28;20238;-85
2021/09/13 07:00:14;;;;;;;6.10;5.50;;;13.80;99.90;;;;;;5006210;28;20178;-85
2021/09/13 07:02:42;;;;;;;6.63;5.47;;;13.80;99.90;;;;;;5006941;28;20250;-85
2021/09/13 07:05:09;;;;;;;5.50;5.00;;;14.10;99.90;;;;;;5006112;28;20183;-84
2021/09/13 07:07:36;;;;;;;5.80;5.20;;;14.20;99.90;;;;;;5016400;28;20160;-83
2021/09/13 07:10:04;;;;;;;5.50;4.97;;;14.60;99.90;;;;;;5016323;28;20525;-83
2021/09/13 07:12:29;;;;;;;5.87;5.13;;;14.60;99.90;;;;;;5004754;28;20204;-84
2021/09/13 07:14:55;;;;;;;6.17;5.33;;;14.70;99.90;;;;;;5005984;28;20210;-83
2021/09/13 07:17:21;;;;;;;7.33;6.00;;;14.90;99.90;;;;;;5000226;28;20179;-84
2021/09/13 07:19:46;;;;;;;6.37;5.37;;;15.00;99.90;;;;;;4999240;28;20531;-84
2021/09/13 07:22:12;;;;;;;10.40;4.77;;;15.10;99.90;;;;;;4998174;28;20192;-83
2021/09/13 07:24:41;;;;;;;6.00;4.60;;;15.10;99.90;;;;;;4999233;28;20178;-83
2021/09/13 07:27:07;;;;;;;5.10;4.57;;;15.10;99.90;;;;;;5000911;28;20176;-83
2021/09/13 07:29:32;;;;;;;5.50;5.00;;;15.10;99.90;;;;;;5003683;28;20170;-83
2021/09/13 07:32:00;;;;;;;6.47;5.17;;;15.20;99.90;;;;;;5007156;28;20205;-83
2021/09/13 07:34:27;;;;;;;6.53;4.40;;;15.30;99.90;;;;;;5003912;28;20195;-83
2021/09/13 07:36:52;;;;;;;7.80;4.80;;;15.40;99.90;;;;;;5000541;28;20219;-84
2021/09/13 07:39:18;;;;;;;6.17;5.10;;;15.50;99.90;;;;;;4999390;28;20250;-84
2021/09/13 07:41:43;;;;;;;7.60;4.37;;;15.60;99.90;;;;;;4999677;28;20195;-84
2021/09/13 07:44:09;;;;;;;7.23;4.60;;;15.70;99.90;;;;;;5000747;28;20696;-84
2021/09/13 07:46:35;;;;;;;6.30;4.50;;;15.80;99.90;;;;;;5001081;28;20652;-84
2021/09/13 07:49:01;;;;;;;8.33;4.50;;;16.10;99.90;;;;;;4999573;28;20194;-84
2021/09/13 07:51:28;;;;;;;5.63;4.77;;;16.40;99.90;;;;;;4999426;28;20715;-84
2021/09/13 07:53:54;;;;;;;6.67;4.07;;;16.70;99.90;;;;;;4998998;28;20263;-84
2021/09/13 07:56:20;;;;;;;4.50;3.80;;;17.00;99.90;;;;;;5001282;28;20227;-84
2021/09/13 07:58:45;;;;;;;5.47;3.90;;;17.40;99.90;;;;;;4999567;28;20179;-84
2021/09/13 08:01:11;;;;;;;5.63;3.63;;;17.90;99.90;;;;;;5001417;28;20226;-84
2021/09/13 08:03:37;;;;;;;4.27;3.80;;;18.60;99.90;;;;;;4999869;28;20184;-84
2021/09/13 08:06:02;;;;;;;4.70;4.03;;;19.50;99.90;;;;;;5001446;28;20191;-84
2021/09/13 08:08:28;;;;;;;4.57;4.07;;;20.50;99.90;;;;;;4999690;28;20190;-84
2021/09/13 08:10:54;;;;;;;4.33;3.80;;;21.10;99.90;;;;;;5000209;28;20633;-84
2021/09/13 08:13:19;;;;;;;7.37;3.83;;;21.60;99.90;;;;;;5001529;28;20532;-84
2021/09/13 08:15:46;;;;;;;4.00;3.60;;;22.30;99.90;;;;;;4997741;28;20726;-83
2021/09/13 08:18:12;;;;;;;5.07;3.87;;;22.70;99.90;;;;;;4995547;28;20184;-84
2021/09/13 08:20:37;;;;;;;4.73;4.33;;;23.40;99.90;;;;;;5000090;28;20294;-84
2021/09/13 08:23:03;;;;;;;3.57;3.23;;;23.70;99.90;;;;;;5000380;28;20186;-84
2021/09/13 08:25:29;;;;;;;5.80;3.90;;;24.00;99.90;;;;;;5001630;28;20187;-84
2021/09/13 08:27:55;;;;;;;5.10;4.50;;;24.00;99.90;;;;;;5002729;28;20172;-85
2021/09/13 08:30:20;;;;;;;4.17;3.77;;;24.30;99.90;;;;;;5003321;28;20201;-84
2021/09/13 08:32:46;;;;;;;6.03;3.87;;;24.50;99.90;;;;;;5002923;28;20275;-84
2021/09/13 08:35:12;;;;;;;6.23;3.77;;;24.70;99.90;;;;;;5008700;28;20207;-83
2021/09/13 08:37:38;;;;;;;6.83;4.20;;;24.80;99.90;;;;;;5014107;28;20181;-84
2021/09/13 08:40:04;;;;;;;6.90;3.60;;;25.00;99.90;;;;;;5010988;28;20188;-84
2021/09/13 08:42:34;;;;;;;3.97;3.37;;;25.20;99.90;;;;;;5000454;28;20184;-84
2021/09/13 08:45:01;;;;;;;4.97;3.60;;;25.30;99.90;;;;;;5000200;28;20220;-83
2021/09/13 08:47:34;;;;;;;3.80;3.50;;;25.50;99.90;;;;;;5001531;28;20218;-84
2021/09/13 08:52:49;;;;;;;7.67;4.40;;;25.50;99.90;;;;;;5000459;28;20215;-83
2021/09/13 08:55:15;;;;;;;4.53;4.13;;;25.60;99.90;;;;;;5001034;28;20215;-83
2021/09/13 08:57:42;;;;;;;8.17;3.70;;;25.50;99.90;;;;;;5000415;28;20208;-83
2021/09/13 09:00:08;;;;;;;3.87;3.57;;;25.70;99.90;;;;;;4999317;28;20632;-83
2021/09/13 09:02:34;;;;;;;4.30;3.90;;;25.80;99.90;;;;;;5001720;28;20680;-83
2021/09/13 09:05:02;;;;;;;3.80;3.50;;;26.10;99.90;;;;;;5000028;28;20239;-83
2021/09/13 09:07:28;;;;;;;4.00;3.60;;;25.80;99.90;;;;;;5000298;28;20213;-83
2021/09/13 09:10:18;;;;;;;4.63;4.10;;;25.50;99.90;;;;;;4999763;28;20193;-83
2021/09/13 09:13:08;;;;;;;5.10;4.07;;;25.40;99.90;;;;;;5000314;28;20541;-84
2021/09/13 09:15:34;;;;;;;9.17;4.33;;;24.70;99.90;;;;;;5001309;28;20197;-84
2021/09/13 09:18:01;;;;;;;3.80;3.40;;;24.80;99.90;;;;;;5000547;28;20675;-83
2021/09/13 09:20:28;;;;;;;3.60;3.23;;;25.00;99.90;;;;;;5001151;28;20270;-84
2021/09/13 09:23:04;;;;;;;3.80;3.50;;;25.40;99.90;;;;;;5001207;28;20175;-83
2021/09/13 09:25:36;;;;;;;5.03;3.70;;;25.90;99.90;;;;;;5000761;28;20175;-83
2021/09/13 09:28:11;;;;;;;4.07;3.53;;;26.30;99.90;;;;;;4999796;28;20175;-84
2021/09/13 09:30:38;;;;;;;3.90;3.60;;;26.60;99.90;;;;;;4999416;28;20225;-84
2021/09/13 09:33:10;;;;;;;4.60;3.97;;;26.50;99.90;;;;;;4997676;28;20207;-84
2021/09/13 09:35:49;;;;;;;4.30;3.80;;;26.90;99.90;;;;;;4997584;28;20220;-83
2021/09/13 09:38:38;;;;;;;3.80;3.50;;;27.10;99.90;;;;;;5000043;28;20210;-83
2021/09/13 09:41:13;;;;;;;3.70;3.33;;;26.30;99.90;;;;;;5002106;28;20259;-84
2021/09/13 09:43:57;;;;;;;3.83;3.50;;;25.90;99.90;;;;;;5000683;28;20171;-83
2021/09/13 09:46:43;;;;;;;3.80;3.50;;;25.40;99.90;;;;;;5002173;28;20581;-84
2021/09/13 09:49:16;;;;;;;4.37;3.97;;;25.50;99.90;;;;;;5001910;28;20522;-83
2021/09/13 09:51:53;;;;;;;3.90;3.60;;;26.30;99.90;;;;;;5009522;28;20208;-83
2021/09/13 09:54:20;;;;;;;4.23;3.83;;;26.70;99.90;;;;;;5018999;28;20170;-83
2021/09/13 09:57:07;;;;;;;4.23;3.83;;;26.20;99.90;;;;;;5021568;28;20270;-83
2021/09/13 09:59:38;;;;;;;4.27;3.87;;;25.80;99.90;;;;;;5019578;28;20192;-84
2021/09/13 10:02:25;;;;;;;4.17;3.77;;;26.20;99.90;;;;;;5007999;28;20199;-84
2021/09/13 10:04:54;;;;;;;7.43;3.50;;;26.80;99.90;;;;;;5014014;28;20231;-83
2021/09/13 10:07:21;;;;;;;4.40;4.03;;;27.20;99.90;;;;;;5018017;28;20174;-84
2021/09/13 10:09:46;;;;;;;4.50;4.10;;;27.60;99.90;;;;;;5006681;28;20258;-84
2021/09/13 10:12:13;;;;;;;4.50;4.10;;;28.00;99.90;;;;;;5003434;28;20197;-84
2021/09/13 10:14:39;;;;;;;4.43;4.03;;;28.40;99.90;;;;;;5003897;28;20172;-84
2021/09/13 10:17:06;;;;;;;4.73;4.33;;;28.70;99.90;;;;;;5003278;28;20264;-84
2021/09/13 10:19:32;;;;;;;5.00;4.60;;;28.70;99.90;;;;;;5002810;28;20190;-84
2021/09/13 10:21:58;;;;;;;5.10;4.43;;;29.00;99.90;;;;;;5001819;28;20210;-84
2021/09/13 10:24:28;;;;;;;4.30;3.97;;;28.80;99.90;;;;;;5003814;28;20251;-84
2021/09/13 10:27:09;;;;;;;5.83;4.23;;;28.40;99.90;;;;;;5002023;28;20213;-84
2021/09/13 10:29:35;;;;;;;4.50;4.10;;;27.70;99.90;;;;;;5001913;28;20183;-84
2021/09/13 10:32:03;;;;;;;7.40;4.57;;;27.20;99.90;;;;;;5004774;28;20700;-84
2021/09/13 10:34:34;;;;;;;5.47;4.23;;;26.40;99.90;;;;;;5004115;28;20262;-84
2021/09/13 10:37:19;;;;;;;7.53;4.30;;;26.30;99.90;;;;;;5003263;28;20203;-84
2021/09/13 10:40:15;;;;;;;5.63;4.13;;;27.70;99.90;;;;;;5005061;28;20206;-84
2021/09/13 10:42:48;;;;;;;4.53;3.83;;;27.80;99.90;;;;;;5003604;28;20188;-84
2021/09/13 10:45:22;;;;;;;4.23;3.93;;;27.50;99.90;;;;;;5003182;28;20236;-84
2021/09/13 10:47:57;;;;;;;3.97;3.67;;;27.10;99.90;;;;;;5002020;28;20187;-84
2021/09/13 10:50:25;;;;;;;6.17;4.20;;;26.10;99.90;;;;;;4995500;28;20206;-84
2021/09/13 10:52:56;;;;;;;3.87;3.53;;;26.10;99.90;;;;;;5003944;28;20187;-84
2021/09/13 10:55:41;;;;;;;4.50;3.70;;;26.60;99.90;;;;;;5003421;28;20271;-85
2021/09/13 10:58:18;;;;;;;4.37;3.97;;;27.10;99.90;;;;;;5004481;28;20228;-84
2021/09/13 11:00:44;;;;;;;4.17;3.70;;;27.90;99.90;;;;;;5003127;28;20196;-84
2021/09/13 11:03:35;;;;;;;3.70;3.40;;;28.00;99.90;;;;;;5003125;28;20244;-84
2021/09/13 11:08:43;;;;;;;3.40;3.10;;;28.70;99.90;;;;;;5005201;28;20193;-84
2021/09/13 11:11:13;;;;;;;4.73;2.77;;;29.00;99.90;;;;;;5005587;28;20201;-84
2021/09/13 11:13:40;;;;;;;3.50;3.20;;;29.10;99.90;;;;;;5004759;28;20169;-84
2021/09/13 11:16:07;;;;;;;3.60;3.30;;;29.20;99.90;;;;;;5005425;28;20265;-83
2021/09/13 11:18:34;;;;;;;4.73;3.10;;;29.70;99.90;;;;;;5004796;28;20184;-84
2021/09/13 11:21:26;;;;;;;4.13;3.00;;;30.10;99.90;;;;;;5005531;28;20227;-84
2021/09/13 11:23:55;;;;;;;3.53;3.23;;;29.80;99.90;;;;;;5005348;28;20186;-84
2021/09/13 11:26:51;;;;;;;5.13;3.43;;;29.20;99.90;;;;;;5005900;28;20188;-84
2021/09/13 11:29:24;;;;;;;3.90;3.43;;;28.70;99.90;;;;;;5014690;28;20176;-84
2021/09/13 11:31:49;;;;;;;3.50;3.13;;;28.40;99.90;;;;;;5015739;28;20202;-83
2021/09/13 11:34:15;;;;;;;4.47;3.00;;;28.50;99.90;;;;;;5005061;28;20251;-84
2021/09/13 11:36:50;;;;;;;4.43;3.20;;;29.20;99.90;;;;;;5001698;28;20200;-84
2021/09/13 11:39:17;;;;;;;6.90;3.10;;;28.70;99.90;;;;;;5002067;28;20175;-84
2021/09/13 11:41:56;;;;;;;3.70;3.40;;;28.80;99.90;;;;;;5002111;28;20225;-84
2021/09/13 11:44:22;;;;;;;4.17;3.47;;;29.40;99.90;;;;;;5001305;28;20231;-84
2021/09/13 11:46:56;;;;;;;4.90;3.30;;;29.60;99.90;;;;;;5002474;28;20188;-84
2021/09/13 11:49:31;;;;;;;3.97;2.93;;;29.20;99.90;;;;;;5000831;28;20255;-83
2021/09/13 11:52:07;;;;;;;9.53;3.47;;;29.30;99.90;;;;;;5002170;28;20192;-84
2021/09/13 11:54:46;;;;;;;7.93;3.13;;;29.80;99.90;;;;;;5000209;28;20183;-84
2021/09/13 11:57:22;;;;;;;4.47;2.90;;;29.40;99.90;;;;;;5000822;28;20654;-84
2021/09/13 11:59:53;;;;;;;3.50;3.17;;;29.90;99.90;;;;;;4999788;28;20704;-84
2021/09/13 12:02:19;;;;;;;3.47;2.70;;;;;;;;;;4999772;28;20235;-84
2021/09/13 12:04:44;;;;;;;3.00;2.70;;;30.60;99.90;;;;;;4999945;28;20184;-84
2021/09/13 12:07:13;;;;;;;3.97;2.67;;;31.70;99.90;;;;;;5000401;28;20195;-83
2021/09/13 12:09:41;;;;;;;6.50;3.13;;;31.60;99.90;;;;;;4997702;28;20287;-84
2021/09/13 12:12:11;;;;;;;6.17;3.10;;;32.10;96.90;;;;;;5011324;28;20230;-83
2021/09/13 12:14:39;;;;;;;3.20;2.90;;;32.30;97.30;;;;;;5019084;28;20164;-83
2021/09/13 12:17:18;;;;;;;5.20;2.80;;;32.40;95.20;;;;;;5016898;28;20225;-83
2021/09/13 12:19:46;;;;;;;3.30;3.00;;;32.90;93.30;;;;;;5009814;28;20168;-84
2021/09/13 12:22:13;;;;;;;3.37;2.97;;;33.20;95.80;;;;;;5000445;28;20564;-84
2021/09/13 12:24:42;;;;;;;2.90;2.70;;;33.60;94.00;;;;;;5002027;28;20261;-85
2021/09/13 12:27:23;;;;;;;3.53;3.07;;;33.40;91.20;;;;;;5000106;28;20187;-85
2021/09/13 12:30:00;;;;;;;4.70;2.87;;;33.20;91.10;;;;;;5001734;28;20166;-84
2021/09/13 12:32:31;;;;;;;2.90;2.60;;;33.40;92.10;;;;;;5000441;28;20183;-84
2021/09/13 12:35:07;;;;;;;5.63;2.97;;;33.80;90.60;;;;;;5001314;28;20211;-84
2021/09/13 12:37:40;;;;;;;6.93;3.23;;;34.10;88.60;;;;;;5000657;28;20645;-85
2021/09/13 12:40:18;;;;;;;3.77;3.07;;;34.40;86.60;;;;;;5005334;28;20207;-85
2021/09/13 12:42:52;;;;;;;4.80;2.90;;;34.50;90.60;;;;;;5001529;28;20603;-83
2021/09/13 12:45:19;;;;;;;7.10;2.90;;;35.10;82.50;;;;;;5004658;28;20179;-83
2021/09/13 12:47:55;;;;;;;2.60;2.40;;;35.30;86.50;;;;;;5004079;28;20601;-83
2021/09/13 12:50:36;;;;;;;5.90;2.87;;;35.20;79.00;;;;;;5001898;28;20208;-84
2021/09/13 12:53:15;;;;;;;4.13;2.90;;;35.00;84.70;;;;;;5007579;28;20639;-84
2021/09/13 12:55:41;;;;;;;7.03;3.10;;;34.70;79.40;;;;;;5011894;28;20219;-83
2021/09/13 12:58:26;;;;;;;6.90;2.90;;;34.70;77.60;;;;;;5003386;28;20187;-84
2021/09/13 13:00:53;;;;;;;4.00;3.40;;;34.20;83.50;;;;;;5001807;28;20230;-84
2021/09/13 13:03:19;;;;;;;4.43;2.67;;;34.70;86.20;;;;;;5001121;28;20178;-84